Tahlequah, Oklahoma
Current Conditions -  °F | °C
As of 7:55 PM on Thursday 18 Dec 2014 (Local Time) from KTQH Reporting Station
Haze Haze  
Wind Chill: 37°   Ceiling: 700
Heat Index: 37°   Visibility: 3mi
Dew Point: 37°   Wind: 0mph
Humidity: 100%   Direction: NA
Pressure: 30.21"   Gusts: NA
Location:  35.91°N, 94.97°W
Report Text: KTQH 190155Z AUTO 00000KT 3SM BR OVC007 03/03 A3021 RMK AO2
Loading
Personal Weather Stations






























Interactive Weather Map New forecast layout! Learn more

10-Day Weather Forecast

Advertisements
Track Severe Weather on mobile